Time;durP1;ratioP1;P1;durP2;ratioP2;P2;SDS_P1;SDS_P2;PMS_P1;PMS_P2;Temp;Humidity;BMP_temperature;BMP_pressure;BME280_temperature;BME280_humidity;BME280_pressure;Samples;Min_cycle;Max_cycle;Signal;HPM_P1;HPM_P2
2022/01/11 00:01:46;;;;;;;37.38;14.95;;;;;;;-6.95;100.00;100253.09;4372695;32;20461;-74
2022/01/11 00:04:16;;;;;;;39.85;16.33;;;;;;;-7.01;100.00;100243.87;4381480;32;20061;-74
2022/01/11 00:06:50;;;;;;;43.20;15.10;;;;;;;-6.91;100.00;100264.19;4375778;32;20076;-78
2022/01/11 00:09:42;;;;;;;46.63;14.93;;;;;;;-6.89;100.00;100267.53;4375578;32;20118;-74
2022/01/11 00:12:08;;;;;;;57.85;19.67;;;;;;;-6.90;100.00;100265.88;4372239;32;20027;-74
2022/01/11 00:14:36;;;;;;;47.78;18.62;;;;;;;-6.82;100.00;100274.03;4369901;32;20300;-74
2022/01/11 00:17:03;;;;;;;65.10;21.35;;;;;;;-7.05;100.00;100237.19;4375025;32;20502;-74
2022/01/11 00:19:29;;;;;;;56.45;18.05;;;;;;;-7.06;100.00;100235.50;4386163;32;20036;-74
2022/01/11 00:21:58;;;;;;;57.75;20.33;;;;;;;-6.85;100.00;100263.75;4372275;32;20046;-74
2022/01/11 00:24:29;;;;;;;49.00;18.75;;;;;;;-6.75;100.00;100275.25;4372920;32;20056;-74
2022/01/11 00:27:00;;;;;;;64.37;17.27;;;;;;;-6.79;100.00;100276.44;4385068;32;20074;-75
2022/01/11 00:29:28;;;;;;;58.60;18.43;;;;;;;-6.79;100.00;100285.13;4386446;32;20094;-74
2022/01/11 00:31:59;;;;;;;48.85;16.08;;;;;;;-6.83;100.00;100277.56;4386322;32;20080;-74
2022/01/11 00:34:36;;;;;;;50.20;16.58;;;;;;;-6.84;100.00;100275.91;4385319;32;20477;-79
2022/01/11 00:37:03;;;;;;;60.20;18.45;;;;;;;-6.96;100.00;100267.94;4385650;32;20059;-74
2022/01/11 00:39:30;;;;;;;45.17;16.12;;;;;;;-7.05;100.00;100252.91;4386291;32;20060;-73
2022/01/11 00:41:56;;;;;;;51.97;17.55;;;;;;;-6.93;100.00;100286.06;4373009;32;20104;-74
2022/01/11 00:44:23;;;;;;;44.08;16.08;;;;;;;-7.14;100.00;100248.28;4384767;32;20052;-74
2022/01/11 00:46:50;;;;;;;52.33;17.20;;;;;;;-6.88;100.00;100296.22;4371046;32;20057;-74
2022/01/11 00:49:16;;;;;;;38.20;15.98;;;;;;;-6.97;100.00;100271.53;4379837;32;20106;-74
2022/01/11 00:51:43;;;;;;;53.35;17.45;;;;;;;-7.14;100.00;100248.28;4385102;32;20051;-75
2022/01/11 00:54:10;;;;;;;52.92;17.45;;;;;;;-7.16;100.00;100245.78;4385029;32;20069;-74
2022/01/11 00:56:36;;;;;;;45.17;16.10;;;;;;;-6.94;100.00;100281.78;4384485;32;20445;-74
2022/01/11 00:59:03;;;;;;;46.45;16.33;;;;;;;-7.17;100.00;100253.75;4386572;32;20084;-74
2022/01/11 01:01:34;;;;;;;42.55;17.90;;;;;;;-7.16;100.00;100255.44;4392413;32;20118;-74
2022/01/11 01:04:01;;;;;;;47.75;17.60;;;;;;;-7.11;100.00;100258.56;4390243;32;20042;-75
2022/01/11 01:06:27;;;;;;;46.33;16.60;;;;;;;-6.88;100.00;100290.16;4390030;32;20118;-74
2022/01/11 01:08:54;;;;;;;54.15;18.30;;;;;;;-7.08;100.00;100247.88;4386497;32;20352;-80
2022/01/11 01:11:21;;;;;;;51.85;16.70;;;;;;;-6.87;100.00;100287.44;4385247;32;20782;-75
2022/01/11 01:13:48;;;;;;;50.53;18.00;;;;;;;-6.87;100.00;100281.37;4380313;32;20059;-74
2022/01/11 01:16:15;;;;;;;53.55;18.10;;;;;;;-6.92;100.00;100284.31;4385703;32;20167;-73
2022/01/11 01:18:42;;;;;;;46.88;17.85;;;;;;;-7.17;100.00;100243.25;4378654;32;20967;-80
2022/01/11 01:21:09;;;;;;;51.95;16.40;;;;;;;-7.57;100.00;100186.66;4385497;32;20467;-74
2022/01/11 01:23:36;;;;;;;68.78;20.08;;;;;;;-6.91;100.00;100299.06;4383469;32;20360;-73
2022/01/11 01:26:03;;;;;;;72.32;19.10;;;;;;;-7.23;100.00;100248.91;4383624;32;20081;-74
2022/01/11 01:28:30;;;;;;;53.35;20.00;;;;;;;-6.93;100.00;100293.91;4384543;32;20085;-79
2022/01/11 01:31:00;;;;;;;50.65;18.52;;;;;;;-7.10;100.00;100275.09;4371015;32;20237;-73
2022/01/11 01:33:32;;;;;;;46.40;16.48;;;;;;;-6.92;100.00;100294.78;4384858;32;20061;-76
2022/01/11 01:36:02;;;;;;;52.95;18.08;;;;;;;-6.96;100.00;100304.59;4384038;32;20429;-74
2022/01/11 01:38:32;;;;;;;77.70;22.20;;;;;;;-6.93;100.00;100299.16;4376772;32;20077;-75
2022/01/11 01:41:12;;;;;;;103.75;28.17;;;;;;;-6.95;100.00;100297.59;4385524;32;20081;-74
2022/01/11 01:43:39;;;;;;;72.80;23.75;;;;;;;-6.88;100.00;100308.50;4384211;32;20039;-74
2022/01/11 01:46:06;;;;;;;79.75;24.37;;;;;;;-6.94;100.00;100297.50;4384488;32;20046;-73
2022/01/11 01:48:35;;;;;;;79.93;20.85;;;;;;;-6.93;100.00;100296.53;4366552;32;20047;-77
2022/01/11 01:51:03;;;;;;;69.80;20.37;;;;;;;-7.19;100.00;100260.87;4369909;32;20051;-73
2022/01/11 01:53:30;;;;;;;44.92;16.37;;;;;;;-7.06;100.00;100281.81;4369866;32;20373;-74
2022/01/11 01:55:57;;;;;;;52.88;18.52;;;;;;;-6.95;100.00;100311.53;4370210;32;20438;-74
2022/01/11 01:58:25;;;;;;;53.50;19.23;;;;;;;-6.97;100.00;100323.91;4367704;32;20041;-75
2022/01/11 02:00:55;;;;;;;56.95;20.52;;;;;;;-6.98;100.00;100316.97;4371562;32;20069;-74
2022/01/11 02:03:26;;;;;;;66.40;21.55;;;;;;;-7.18;100.00;100279.09;4371059;32;20051;-74
2022/01/11 02:05:54;;;;;;;61.80;19.10;;;;;;;-6.89;100.00;100323.38;4385264;32;20073;-75
2022/01/11 02:08:22;;;;;;;62.50;20.75;;;;;;;-6.89;100.00;100338.22;4384833;32;20047;-74
2022/01/11 02:10:49;;;;;;;62.62;19.15;;;;;;;-7.03;100.00;100333.97;4383484;32;20047;-74
2022/01/11 02:13:16;;;;;;;48.97;17.98;;;;;;;-7.12;100.00;100324.94;4371633;32;20035;-74
2022/01/11 02:15:44;;;;;;;56.88;19.05;;;;;;;-7.18;100.00;100331.44;4370818;32;20061;-74
2022/01/11 02:18:13;;;;;;;52.97;19.42;;;;;;;-7.52;100.00;100288.37;4371568;32;20379;-74
2022/01/11 02:20:49;;;;;;;62.85;21.60;;;;;;;-7.25;100.00;100343.25;4386045;32;20329;-74
2022/01/11 02:23:20;;;;;;;65.10;20.88;;;;;;;-7.25;100.00;100339.81;4386010;32;20047;-74
2022/01/11 02:25:49;;;;;;;57.20;22.25;;;;;;;-7.49;100.00;100311.72;4387608;32;20087;-75
2022/01/11 02:28:20;;;;;;;75.20;23.95;;;;;;;-7.60;100.00;100293.28;4374967;32;20170;-74
2022/01/11 02:30:48;;;;;;;74.15;25.12;;;;;;;-7.25;100.00;100338.00;4385774;32;20353;-74
2022/01/11 02:36:18;;;;;;;77.03;26.60;;;;;;;-7.23;100.00;100337.91;4374880;32;20039;-74
2022/01/11 02:38:50;;;;;;;78.18;26.45;;;;;;;-7.23;100.00;100337.91;4386578;32;20394;-74
2022/01/11 02:41:17;;;;;;;94.10;30.85;;;;;;;-7.37;100.00;100316.13;4374040;32;20377;-75
2022/01/11 02:43:47;;;;;;;79.12;28.05;;;;;;;-7.43;100.00;100327.00;4385296;32;20050;-75
2022/01/11 02:46:21;;;;;;;72.10;24.75;;;;;;;-7.43;100.00;100332.25;4387571;32;20069;-73
2022/01/11 02:48:54;;;;;;;77.40;25.85;;;;;;;-7.45;100.00;100334.12;4385791;32;20034;-74
2022/01/11 02:51:24;;;;;;;79.93;24.60;;;;;;;-7.37;100.00;100331.84;4385817;32;20148;-80
2022/01/11 02:53:53;;;;;;;71.40;25.15;;;;;;;-7.36;100.00;100338.72;4386488;32;20062;-74
2022/01/11 02:56:21;;;;;;;81.05;26.75;;;;;;;-7.33;100.00;100332.47;4373716;32;20064;-74
2022/01/11 02:58:49;;;;;;;87.72;28.48;;;;;;;-7.27;100.00;100341.66;4387279;32;20081;-74
2022/01/11 03:01:22;;;;;;;71.97;27.87;;;;;;;-7.41;100.00;100338.22;4385319;32;20051;-78
2022/01/11 03:03:49;;;;;;;90.50;29.17;;;;;;;-8.20;100.00;100248.34;4386720;32;20081;-74
2022/01/11 03:06:23;;;;;;;89.97;30.75;;;;;;;-7.85;100.00;100321.03;4387406;32;20042;-74
2022/01/11 03:08:50;;;;;;;90.78;29.02;;;;;;;-7.89;100.00;100335.25;4372999;32;20364;-74
2022/01/11 03:11:21;;;;;;;97.10;31.30;;;;;;;-8.23;100.00;100300.84;4384671;32;20360;-80
2022/01/11 03:13:49;;;;;;;92.37;29.80;;;;;;;-8.33;100.00;100284.06;4366653;32;20081;-74
2022/01/11 03:16:17;;;;;;;84.97;29.87;;;;;;;-7.98;100.00;100341.06;4386984;32;20035;-73
2022/01/11 03:18:46;;;;;;;91.18;29.48;;;;;;;-7.98;100.00;100351.53;4371348;32;20064;-74
2022/01/11 03:21:12;;;;;;;100.65;30.70;;;;;;;-8.35;100.00;100293.78;4371076;32;20065;-74
2022/01/11 03:23:39;;;;;;;94.75;30.27;;;;;;;-8.15;100.00;100334.31;4367602;32;20081;-75
2022/01/11 03:26:07;;;;;;;82.97;27.37;;;;;;;-8.13;100.00;100348.13;4371840;32;20508;-74
2022/01/11 03:28:34;;;;;;;102.60;31.30;;;;;;;-8.16;100.00;100348.31;4370711;32;20028;-74
2022/01/11 03:31:01;;;;;;;96.37;32.60;;;;;;;-8.31;100.00;100323.97;4370297;32;20035;-74
2022/01/11 03:33:30;;;;;;;87.37;31.85;;;;;;;-8.18;100.00;100340.59;4371283;32;20048;-76
2022/01/11 03:35:56;;;;;;;83.78;28.83;;;;;;;-8.19;100.00;100343.28;4370258;32;20039;-73
2022/01/11 03:38:23;;;;;;;91.78;30.83;;;;;;;-8.18;100.00;100351.03;4377228;32;20389;-79
2022/01/11 03:40:51;;;;;;;84.80;29.50;;;;;;;-8.14;100.00;100349.06;4386671;32;20400;-74
2022/01/11 03:43:21;;;;;;;89.72;29.05;;;;;;;-8.11;100.00;100347.06;4386683;32;20086;-73
2022/01/11 03:45:50;;;;;;;86.72;31.62;;;;;;;-8.06;100.00;100355.50;4379361;32;20051;-77
2022/01/11 03:48:18;;;;;;;96.63;29.10;;;;;;;-8.30;100.00;100302.16;4386202;32;20986;-75
2022/01/11 03:50:51;;;;;;;73.43;26.15;;;;;;;-8.19;100.00;100322.37;4377488;32;20052;-74
2022/01/11 03:53:24;;;;;;;73.50;25.00;;;;;;;-8.01;100.00;100356.97;4370998;32;20047;-74
2022/01/11 03:58:20;;;;;;;67.53;25.33;;;;;;;-8.06;100.00;100336.34;4371250;32;20112;-74
2022/01/11 04:00:47;;;;;;;86.20;28.10;;;;;;;-7.89;100.00;100361.41;4371478;32;20483;-75
2022/01/11 04:03:14;;;;;;;79.55;26.98;;;;;;;-8.24;100.00;100310.44;4382312;32;20057;-74
2022/01/11 04:05:42;;;;;;;73.03;26.02;;;;;;;-8.03;100.00;100352.66;4384655;32;20057;-78
2022/01/11 04:08:11;;;;;;;91.05;28.20;;;;;;;-8.13;100.00;100364.66;4386048;32;20039;-74
2022/01/11 04:10:38;;;;;;;96.43;28.77;;;;;;;-8.11;100.00;100368.00;4371836;32;20038;-73
2022/01/11 04:13:05;;;;;;;72.85;23.25;;;;;;;-8.11;100.00;100368.00;4369898;32;20028;-73
2022/01/11 04:15:32;;;;;;;59.47;20.05;;;;;;;-8.37;100.00;100313.94;4370328;32;20035;-74
2022/01/11 04:17:59;;;;;;;64.47;20.55;;;;;;;-8.28;100.00;100323.78;4368854;32;20068;-78
2022/01/11 04:20:25;;;;;;;62.47;21.42;;;;;;;-8.15;100.00;100339.53;4369674;32;20069;-73
2022/01/11 04:22:53;;;;;;;115.65;36.60;;;;;;;-8.26;100.00;100321.94;4369596;32;20101;-74
2022/01/11 04:25:21;;;;;;;114.50;36.40;;;;;;;-8.01;100.00;100372.63;4371026;32;20039;-74
2022/01/11 04:27:48;;;;;;;109.78;37.42;;;;;;;-8.19;100.00;100379.87;4375835;32;20092;-73
2022/01/11 04:30:15;;;;;;;101.10;33.13;;;;;;;-8.61;100.00;100338.06;4383188;32;20047;-75
2022/01/11 04:32:42;;;;;;;107.68;34.28;;;;;;;-8.70;100.00;100343.84;4385535;32;20284;-73
2022/01/11 04:35:16;;;;;;;78.68;25.60;;;;;;;-8.43;100.00;100396.97;4385797;32;20421;-73
2022/01/11 04:37:45;;;;;;;79.97;25.25;;;;;;;-8.36;100.00;100399.22;4385698;32;20061;-74
2022/01/11 04:40:13;;;;;;;77.43;27.25;;;;;;;-8.51;100.00;100352.22;4384044;32;20043;-76
2022/01/11 04:42:41;;;;;;;71.03;23.98;;;;;;;-8.42;100.00;100349.03;4384234;32;20065;-76
2022/01/11 04:45:11;;;;;;;74.70;26.80;;;;;;;-8.05;100.00;100398.16;4385475;32;20192;-75
2022/01/11 04:47:38;;;;;;;81.82;28.20;;;;;;;-8.28;100.00;100349.91;4383959;32;20092;-75
2022/01/11 04:50:06;;;;;;;69.55;24.48;;;;;;;-8.05;100.00;100385.91;4385368;32;20459;-73
2022/01/11 04:52:33;;;;;;;70.50;22.45;;;;;;;-7.92;100.00;100398.22;4382153;32;20027;-73
2022/01/11 04:55:00;;;;;;;70.85;23.48;;;;;;;-7.96;100.00;100388.88;4385346;32;20077;-73
2022/01/11 04:57:27;;;;;;;70.28;24.00;;;;;;;-7.89;100.00;100398.84;4384823;32;20454;-76
2022/01/11 04:59:53;;;;;;;76.12;22.27;;;;;;;-7.88;100.00;100402.28;4371871;32;20069;-75
2022/01/11 05:02:20;;;;;;;70.28;22.42;;;;;;;-8.18;100.00;100360.62;4383616;32;20101;-74
2022/01/11 05:04:46;;;;;;;79.53;22.13;;;;;;;-8.00;100.00;100405.69;4383925;32;20325;-75
2022/01/11 05:07:13;;;;;;;72.30;23.17;;;;;;;-7.98;100.00;100403.81;4385113;32;20373;-74
2022/01/11 05:09:39;;;;;;;61.22;19.83;;;;;;;-8.00;100.00;100410.94;4371565;32;20387;-75
2022/01/11 05:12:07;;;;;;;70.70;22.52;;;;;;;-8.25;100.00;100375.84;4385072;32;20031;-75
2022/01/11 05:14:34;;;;;;;57.03;20.30;;;;;;;-8.01;100.00;100414.47;4383621;32;20035;-78
2022/01/11 05:17:01;;;;;;;58.83;21.67;;;;;;;-8.04;100.00;100413.72;4382971;32;20125;-75
2022/01/11 05:19:28;;;;;;;66.30;22.23;;;;;;;-8.25;100.00;100376.72;4382193;32;20404;-75
2022/01/11 05:21:54;;;;;;;75.55;21.75;;;;;;;-8.17;100.00;100380.59;4371033;32;20061;-74
2022/01/11 05:24:21;;;;;;;56.22;20.48;;;;;;;-7.93;100.00;100418.28;4385272;32;20061;-77
2022/01/11 05:26:48;;;;;;;68.82;22.23;;;;;;;-7.88;100.00;100437.13;4381275;32;20133;-75
2022/01/11 05:29:14;;;;;;;70.82;23.23;;;;;;;-7.90;100.00;100420.72;4385460;32;20941;-75
2022/01/11 05:31:41;;;;;;;77.80;25.12;;;;;;;-7.81;100.00;100434.97;4377227;32;20065;-75
2022/01/11 05:34:08;;;;;;;74.53;24.55;;;;;;;-7.91;100.00;100436.50;4368882;32;20185;-75
2022/01/11 05:36:35;;;;;;;75.28;26.25;;;;;;;-8.11;100.00;100433.34;4369177;32;20073;-76
2022/01/11 05:39:02;;;;;;;83.43;23.12;;;;;;;-8.13;100.00;100435.22;4369023;32;20371;-78
2022/01/11 05:41:33;;;;;;;66.93;23.05;;;;;;;-8.48;100.00;100393.84;4362994;32;20083;-75
2022/01/11 05:44:00;;;;;;;94.78;29.52;;;;;;;-8.48;100.00;100401.69;4363190;32;20376;-75
2022/01/11 05:46:27;;;;;;;65.97;23.77;;;;;;;-8.33;100.00;100419.91;4377471;32;20149;-75
2022/01/11 05:48:54;;;;;;;63.17;21.33;;;;;;;-8.23;100.00;100426.28;4370737;32;20027;-80
2022/01/11 05:51:20;;;;;;;66.55;23.70;;;;;;;-8.07;100.00;100432.22;4382443;32;20043;-77
2022/01/11 05:53:56;;;;;;;63.72;23.55;;;;;;;-7.96;100.00;100443.78;4385087;32;20379;-75
2022/01/11 05:56:23;;;;;;;94.05;31.65;;;;;;;-8.24;100.00;100393.22;4373471;32;20027;-74
2022/01/11 05:58:52;;;;;;;93.07;32.35;;;;;;;-7.87;100.00;100453.66;4385768;32;20039;-81
2022/01/11 06:01:24;;;;;;;81.20;32.20;;;;;;;-7.97;100.00;100442.09;4387878;32;20182;-75
2022/01/11 06:03:51;;;;;;;89.30;32.92;;;;;;;-7.91;100.00;100460.87;4386164;32;20039;-75
2022/01/11 06:06:18;;;;;;;86.30;29.67;;;;;;;-7.92;100.00;100463.56;4379847;32;20031;-75
2022/01/11 06:08:44;;;;;;;91.00;32.22;;;;;;;-7.94;100.00;100466.28;4371077;32;20467;-78
2022/01/11 06:11:12;;;;;;;94.50;30.75;;;;;;;-8.26;100.00;100411.62;4377862;32;20069;-75
2022/01/11 06:13:39;;;;;;;84.68;31.25;;;;;;;-8.00;100.00;100450.16;4386569;32;20039;-75
2022/01/11 06:16:07;;;;;;;86.72;29.77;;;;;;;-8.01;100.00;100464.97;4387543;32;20452;-75
2022/01/11 06:18:40;;;;;;;70.30;25.65;;;;;;;-8.05;100.00;100464.31;4385497;32;20043;-75
2022/01/11 06:21:07;;;;;;;96.28;29.05;;;;;;;-8.00;100.00;100468.44;4386259;32;20086;-75
2022/01/11 06:23:35;;;;;;;87.30;28.42;;;;;;;-8.00;100.00;100468.44;4383737;32;20455;-74
2022/01/11 06:26:02;;;;;;;91.40;34.20;;;;;;;-8.31;100.00;100431.09;4387235;32;20091;-75
2022/01/11 06:28:28;;;;;;;95.30;32.78;;;;;;;-8.04;100.00;100481.69;4387331;32;20047;-74
2022/01/11 06:30:55;;;;;;;111.78;37.30;;;;;;;-8.40;100.00;100420.28;4386217;32;20395;-82
2022/01/11 06:33:22;;;;;;;122.32;40.28;;;;;;;-8.30;100.00;100427.56;4386379;32;20040;-75
2022/01/11 06:35:49;;;;;;;127.30;41.92;;;;;;;-7.96;100.00;100485.59;4373208;32;20158;-74
2022/01/11 06:38:16;;;;;;;125.90;43.87;;;;;;;-8.26;100.00;100442.16;4387172;32;20057;-74
2022/01/11 06:40:43;;;;;;;110.75;40.38;;;;;;;-8.30;100.00;100445.88;4386199;32;20031;-74
2022/01/11 06:43:11;;;;;;;121.05;44.42;;;;;;;-8.36;100.00;100430.56;4386387;32;20155;-77
2022/01/11 06:45:39;;;;;;;115.32;42.33;;;;;;;-8.41;100.00;100444.75;4371333;32;20090;-75
2022/01/11 06:48:08;;;;;;;146.75;49.75;;;;;;;-8.38;100.00;100475.06;4386004;32;20124;-75
2022/01/11 06:50:35;;;;;;;115.10;47.13;;;;;;;-8.43;100.00;100488.41;4385433;32;20035;-73
2022/01/11 06:53:02;;;;;;;110.65;41.97;;;;;;;-8.60;100.00;100475.53;4383163;32;20621;-79
2022/01/11 06:55:29;;;;;;;104.45;39.50;;;;;;;-8.57;100.00;100496.25;4380811;32;20031;-75
2022/01/11 06:57:56;;;;;;;116.90;42.20;;;;;;;-8.54;100.00;100510.91;4371040;32;20538;-76
2022/01/11 07:00:23;;;;;;;127.80;41.55;;;;;;;-8.92;100.00;100460.00;4370386;32;20047;-75
2022/01/11 07:02:50;;;;;;;119.03;40.33;;;;;;;-8.88;100.00;100456.28;4368365;32;20047;-75
2022/01/11 07:05:19;;;;;;;112.65;39.20;;;;;;;-8.80;100.00;100474.13;4351598;32;20039;-75
2022/01/11 07:07:45;;;;;;;114.93;36.78;;;;;;;-8.56;100.00;100513.62;4370610;32;20849;-76
2022/01/11 07:10:13;;;;;;;113.45;38.97;;;;;;;-8.81;100.00;100473.25;4358031;32;20086;-77
2022/01/11 07:12:40;;;;;;;94.68;35.05;;;;;;;-8.55;100.00;100515.31;4355284;32;20200;-75
2022/01/11 07:15:08;;;;;;;98.00;35.50;;;;;;;-8.56;100.00;100513.62;4370003;32;20090;-75
2022/01/11 07:17:35;;;;;;;98.55;34.92;;;;;;;-8.74;100.00;100483.34;4364756;32;20085;-76
2022/01/11 07:20:02;;;;;;;83.75;30.55;;;;;;;-8.44;100.00;100520.75;4368269;32;20051;-75
2022/01/11 07:22:29;;;;;;;79.22;30.30;;;;;;;-8.75;100.00;100471.25;4356379;32;20430;-75
2022/01/11 07:24:56;;;;;;;70.95;27.45;;;;;;;-8.29;100.00;100525.94;4356573;32;20163;-75
2022/01/11 07:27:23;;;;;;;88.30;29.52;;;;;;;-8.51;100.00;100488.06;4367572;32;20393;-81
2022/01/11 07:29:50;;;;;;;103.65;31.02;;;;;;;-8.52;100.00;100473.34;4367930;32;20071;-75
2022/01/11 07:32:17;;;;;;;90.75;28.35;;;;;;;-8.42;100.00;100478.81;4358193;32;20063;-73
2022/01/11 07:34:44;;;;;;;129.05;47.05;;;;;;;-8.19;100.00;100515.78;4371385;32;20057;-73
2022/01/11 07:37:11;;;;;;;164.55;64.78;;;;;;;-8.33;100.00;100499.13;4371812;32;20232;-74
2022/01/11 07:39:39;;;;;;;174.35;65.70;;;;;;;-8.36;100.00;100488.03;4369270;32;20054;-77
2022/01/11 07:42:07;;;;;;;145.05;55.10;;;;;;;-8.10;100.00;100525.69;4372061;32;20043;-74
2022/01/11 07:44:34;;;;;;;114.25;46.22;;;;;;;-8.08;100.00;100532.47;4372381;32;20036;-75
2022/01/11 07:47:07;;;;;;;106.68;36.88;;;;;;;-8.01;100.00;100524.28;4386860;32;20096;-75
2022/01/11 07:49:35;;;;;;;106.72;40.10;;;;;;;-7.97;100.00;100521.38;4384782;32;20339;-81
2022/01/11 07:52:02;;;;;;;113.90;43.15;;;;;;;-7.86;100.00;100532.00;4385925;32;20073;-74
2022/01/11 07:54:29;;;;;;;149.80;54.83;;;;;;;-7.82;100.00;100529.22;4385726;32;20031;-73
2022/01/11 07:56:56;;;;;;;146.05;53.25;;;;;;;-7.81;100.00;100526.50;4386506;32;20035;-75
2022/01/11 07:59:23;;;;;;;169.18;54.88;;;;;;;-7.82;100.00;100530.03;4386313;32;20463;-76
2022/01/11 08:01:50;;;;;;;149.25;50.28;;;;;;;-8.04;100.00;100484.31;4370927;32;20038;-81
2022/01/11 08:04:17;;;;;;;149.87;49.72;;;;;;;-7.90;100.00;100490.47;4369477;32;20067;-76
2022/01/11 08:06:44;;;;;;;126.75;45.25;;;;;;;-7.69;100.00;100520.50;4384129;32;20039;-75
2022/01/11 08:09:14;;;;;;;131.30;45.72;;;;;;;-7.81;100.00;100496.91;4371596;32;20041;-76
2022/01/11 08:11:42;;;;;;;130.95;49.35;;;;;;;-7.65;100.00;100515.94;4369219;32;20347;-76
2022/01/11 08:14:10;;;;;;;150.70;50.58;;;;;;;-7.51;100.00;100533.38;4355262;32;20035;-75
2022/01/11 08:16:39;;;;;;;137.45;53.87;;;;;;;-7.48;100.00;100533.19;4370562;32;20044;-75
2022/01/11 08:19:06;;;;;;;158.45;52.50;;;;;;;-7.70;100.00;100492.66;4369347;32;20068;-75
2022/01/11 08:21:33;;;;;;;198.18;65.72;;;;;;;-7.46;100.00;100515.59;4370993;32;20061;-75
2022/01/11 08:24:00;;;;;;;212.20;66.47;;;;;;;-7.39;100.00;100522.13;4370108;32;20035;-74
2022/01/11 08:26:27;;;;;;;215.68;65.25;;;;;;;-7.51;100.00;100486.28;4368131;32;20149;-75
2022/01/11 08:28:54;;;;;;;172.57;54.78;;;;;;;-7.48;100.00;100491.31;4367778;32;20408;-75
2022/01/11 08:31:20;;;;;;;138.35;48.10;;;;;;;-7.23;100.00;100518.53;4356670;32;20036;-76
2022/01/11 08:33:48;;;;;;;169.40;51.97;;;;;;;-7.12;100.00;100539.63;4370688;32;20490;-75
2022/01/11 08:36:15;;;;;;;198.00;64.70;;;;;;;-7.07;100.00;100542.78;4370037;32;20032;-77
2022/01/11 08:38:42;;;;;;;200.77;62.50;;;;;;;-7.01;100.00;100547.62;4370119;32;20031;-75
2022/01/11 08:41:10;;;;;;;222.65;66.57;;;;;;;-6.96;100.00;100545.53;4361241;32;20035;-75
2022/01/11 08:43:37;;;;;;;228.45;67.22;;;;;;;-6.85;100.00;100551.88;4384672;32;20053;-75
2022/01/11 08:46:04;;;;;;;163.07;55.38;;;;;;;-6.76;100.00;100551.28;4371243;32;20396;-75
2022/01/11 08:48:32;;;;;;;181.23;58.10;;;;;;;-6.69;100.00;100563.00;4383707;32;20173;-75
2022/01/11 08:50:59;;;;;;;153.62;50.20;;;;;;;-6.63;100.00;100559.97;4372694;32;20027;-75
2022/01/11 08:53:25;;;;;;;144.85;48.53;;;;;;;-6.64;100.00;100544.38;4384974;32;20035;-79
2022/01/11 08:55:52;;;;;;;174.45;54.92;;;;;;;-6.51;100.00;100560.09;4374506;32;20044;-76
2022/01/11 08:58:20;;;;;;;154.48;52.60;;;;;;;-6.42;100.00;100564.75;4383114;32;20421;-79
2022/01/11 09:00:50;;;;;;;149.10;47.30;;;;;;;-6.35;100.00;100566.03;4374900;32;20036;-76
2022/01/11 09:03:17;;;;;;;149.35;43.08;;;;;;;-6.55;100.00;100520.19;4375644;32;20036;-76
2022/01/11 09:05:45;;;;;;;123.43;39.78;;;;;;;-6.32;100.00;100560.56;4376827;32;20023;-74
2022/01/11 09:08:11;;;;;;;131.05;41.40;;;;;;;-6.17;100.00;100569.19;4376432;32;20049;-82
2022/01/11 09:10:38;;;;;;;107.68;38.05;;;;;;;-6.14;100.00;100578.59;4368742;32;20027;-75
2022/01/11 09:13:05;;;;;;;92.30;30.60;;;;;;;-6.06;100.00;100571.06;4374165;32;20068;-75
2022/01/11 09:15:33;;;;;;;110.65;35.13;;;;;;;-5.98;100.00;100579.25;4378584;32;20035;-74
2022/01/11 09:18:08;;;;;;;107.00;39.17;;;;;;;-6.21;100.00;100529.22;4379672;32;20036;-74
2022/01/11 09:20:41;;;;;;;103.40;35.92;;;;;;;-5.82;100.00;100568.50;4364216;32;20040;-76
2022/01/11 09:23:13;;;;;;;88.12;33.20;;;;;;;-5.74;100.00;100575.84;4375677;32;20058;-75
2022/01/11 09:25:47;;;;;;;109.50;37.00;;;;;;;-5.69;100.00;100584.25;4370818;32;20399;-74
2022/01/11 09:28:25;;;;;;;97.90;36.08;;;;;;;-5.90;100.00;100537.56;4360117;32;20380;-75
2022/01/11 09:30:55;;;;;;;90.57;30.35;;;;;;;-5.57;100.00;100582.53;4373394;32;20082;-73
2022/01/11 09:33:29;;;;;;;85.25;29.37;;;;;;;-5.49;100.00;100593.34;4373801;32;20031;-76
2022/01/11 09:35:58;;;;;;;76.25;27.00;;;;;;;-5.44;100.00;100593.88;4371939;32;20036;-81
2022/01/11 09:38:27;;;;;;;67.55;24.23;;;;;;;-5.53;100.00;100548.09;4372468;32;20057;-75
2022/01/11 09:40:57;;;;;;;57.50;21.90;;;;;;;-5.43;100.00;100550.06;4373523;32;20410;-74
2022/01/11 09:43:26;;;;;;;45.22;17.40;;;;;;;-5.14;100.00;100590.84;4373518;32;20053;-75
2022/01/11 09:45:54;;;;;;;51.50;18.45;;;;;;;-5.15;100.00;100589.16;4372709;32;20027;-75
2022/01/11 09:48:23;;;;;;;58.85;21.15;;;;;;;-5.13;100.00;100589.06;4372597;32;20448;-75
2022/01/11 09:50:51;;;;;;;52.72;19.42;;;;;;;-5.09;100.00;100577.34;4375807;32;20040;-74
2022/01/11 09:53:19;;;;;;;61.05;20.27;;;;;;;-5.03;100.00;100586.59;4372946;32;20082;-74
2022/01/11 09:55:46;;;;;;;46.45;17.95;;;;;;;-4.98;100.00;100573.97;4359050;32;20028;-76
2022/01/11 09:58:14;;;;;;;49.08;19.27;;;;;;;-5.38;100.00;100508.56;4371873;32;20430;-75
2022/01/11 10:00:56;;;;;;;30.73;10.82;;;;;;;-5.14;100.00;100548.81;4374382;32;20069;-72
2022/01/11 10:03:24;;;;;;;59.47;21.17;;;;;;;-5.44;100.00;100488.88;4379859;32;20418;-72
2022/01/11 10:05:51;;;;;;;77.25;24.80;;;;;;;-4.88;100.00;100580.25;4387554;32;20460;-71
2022/01/11 10:08:31;;;;;;;62.75;21.45;;;;;;;-5.03;100.00;100549.81;4385801;32;20073;-73
2022/01/11 10:10:58;;;;;;;69.85;22.92;;;;;;;-4.79;100.00;100576.91;4388225;32;20051;-72
2022/01/11 10:13:38;;;;;;;64.00;24.05;;;;;;;-4.59;100.00;100590.41;4387401;32;20039;-72
2022/01/11 10:16:27;;;;;;;56.22;21.17;;;;;;;-4.61;100.00;100576.50;4377721;32;20498;-72
2022/01/11 10:18:56;;;;;;;62.90;21.20;;;;;;;-4.48;100.00;100598.34;4375609;32;20061;-73
2022/01/11 10:21:44;;;;;;;59.22;19.95;;;;;;;-4.78;100.00;100549.69;4378929;32;20040;-73
2022/01/11 10:24:35;;;;;;;52.25;20.75;;;;;;;-4.66;100.00;100552.37;4377041;32;20069;-73
2022/01/11 10:27:06;;;;;;;67.55;23.40;;;;;;;-4.67;100.00;100555.97;4360050;32;20326;-73
2022/01/11 10:29:37;;;;;;;74.78;25.52;;;;;;;-4.31;100.00;100604.94;4385980;32;20086;-73
2022/01/11 10:32:33;;;;;;;67.15;24.37;;;;;;;-4.40;100.00;100593.34;4387177;32;20040;-73
2022/01/11 10:35:12;;;;;;;53.28;20.98;;;;;;;-4.27;100.00;100613.47;4369931;32;20043;-76
2022/01/11 10:37:57;;;;;;;54.88;22.73;;;;;;;-4.32;100.00;100612.94;4355914;32;20076;-73
2022/01/11 10:40:34;;;;;;;57.08;21.80;;;;;;;-4.29;100.00;100607.47;4355972;32;20073;-76
2022/01/11 10:43:08;;;;;;;34.88;13.32;;;;;;;-4.35;100.00;100597.44;4356678;32;20048;-73
2022/01/11 10:45:37;;;;;;;71.25;22.48;;;;;;;-4.32;100.00;100623.47;4357501;32;20039;-73
2022/01/11 10:48:14;;;;;;;82.22;29.67;;;;;;;-4.58;100.00;100578.91;4356201;32;20048;-73
2022/01/11 10:50:44;;;;;;;90.70;30.50;;;;;;;-4.23;100.00;100628.03;4354655;33;20187;-73
2022/01/11 10:53:20;;;;;;;73.43;25.58;;;;;;;-4.31;100.00;100625.97;4355899;32;20486;-73
2022/01/11 10:55:55;;;;;;;71.37;25.37;;;;;;;-4.32;100.00;100628.72;4363275;32;20057;-75
2022/01/11 10:58:36;;;;;;;74.25;23.92;;;;;;;-4.56;100.00;100584.94;4366219;32;20027;-73
2022/01/11 11:01:08;;;;;;;67.28;25.40;;;;;;;-4.44;100.00;100594.50;4379921;32;20110;-73
2022/01/11 11:03:36;;;;;;;72.45;26.73;;;;;;;-4.45;100.00;100581.47;4373310;32;20040;-74
2022/01/11 11:06:10;;;;;;;83.32;26.25;;;;;;;-4.49;100.00;100586.13;4379320;32;20055;-73
2022/01/11 11:08:40;;;;;;;85.20;29.37;;;;;;;-4.76;100.00;100558.31;4376938;32;20039;-73
2022/01/11 11:11:09;;;;;;;102.00;31.23;;;;;;;-4.90;100.00;100597.88;4373763;32;20108;-73
2022/01/11 11:13:39;;;;;;;98.12;29.33;;;;;;;-5.13;100.00;100582.00;4376304;32;20098;-74